createdAt,value
2023-05-07T00:03:23.861Z,4.20
2023-05-07T00:08:28.410Z,0.77
2023-05-07T00:13:36.705Z,1.25
2023-05-07T00:18:39.858Z,0.90
2023-05-07T00:23:42.904Z,1.55
2023-05-07T00:28:46.172Z,2.85
2023-05-07T00:33:49.109Z,7.97
2023-05-07T00:38:52.047Z,7.63
2023-05-07T00:43:55.031Z,7.07
2023-05-07T00:48:58.749Z,2.10
2023-05-07T00:54:04.269Z,1.92
2023-05-07T00:59:07.806Z,0.95
2023-05-07T01:04:10.874Z,0.65
2023-05-07T01:09:14.963Z,1.42
2023-05-07T01:14:18.594Z,3.58
2023-05-07T01:19:21.991Z,2.25
2023-05-07T01:24:25.900Z,6.38
2023-05-07T01:29:29.997Z,2.85
2023-05-07T01:34:36.067Z,12.93
2023-05-07T01:39:41.160Z,6.30
2023-05-07T01:44:44.190Z,9.25
2023-05-07T01:49:47.248Z,7.10
2023-05-07T01:54:50.234Z,2.05
2023-05-07T01:59:53.221Z,2.80
2023-05-07T02:04:56.589Z,1.77
2023-05-07T02:09:59.720Z,3.38
2023-05-07T02:15:03.698Z,5.75
2023-05-07T02:20:14.626Z,2.28
2023-05-07T02:25:38.665Z,1.88
2023-05-07T02:30:41.750Z,2.47
2023-05-07T02:35:45.737Z,0.47
2023-05-07T02:40:51.152Z,1.13
2023-05-07T02:46:08.087Z,0.45
2023-05-07T02:51:14.611Z,1.17
2023-05-07T02:56:19.317Z,0.75
2023-05-07T03:01:22.488Z,0.63
2023-05-07T03:06:34.848Z,1.17
2023-05-07T03:11:38.163Z,0.73
2023-05-07T03:16:41.569Z,0.88
2023-05-07T03:21:44.747Z,4.32
2023-05-07T03:26:47.938Z,3.95
2023-05-07T03:31:51.389Z,0.60
2023-05-07T03:36:54.460Z,2.35
2023-05-07T03:41:59.510Z,2.40
2023-05-07T03:47:02.708Z,0.80
2023-05-07T03:52:06.749Z,1.63
2023-05-07T03:57:10.084Z,2.45
2023-05-07T04:02:13.441Z,1.52
2023-05-07T04:07:17.277Z,0.80
2023-05-07T04:12:24.833Z,1.17
2023-05-07T04:17:28.204Z,0.63
2023-05-07T04:22:31.291Z,5.03
2023-05-07T04:27:35.205Z,0.90
2023-05-07T04:32:38.675Z,3.80
2023-05-07T04:37:42.347Z,0.85
2023-05-07T04:42:45.786Z,1.55
2023-05-07T04:47:49.250Z,1.70
2023-05-07T04:52:52.361Z,1.58
2023-05-07T04:57:55.722Z,1.40
2023-05-07T05:02:59.857Z,3.92
2023-05-07T05:08:03.976Z,2.85
2023-05-07T05:13:09.438Z,1.08
2023-05-07T05:18:12.544Z,2.88
2023-05-07T05:23:16.636Z,1.50
2023-05-07T05:28:20.626Z,2.47
2023-05-07T05:33:23.670Z,2.33
2023-05-07T05:38:27.377Z,4.95
2023-05-07T05:43:31.307Z,4.57
2023-05-07T05:48:35.249Z,3.13
2023-05-07T05:53:40.736Z,3.63
2023-05-07T05:58:44.710Z,2.72
2023-05-07T06:03:47.793Z,5.22
2023-05-07T06:08:52.119Z,1.55
2023-05-07T06:14:01.016Z,1.55
2023-05-07T06:19:05.357Z,1.83
2023-05-07T06:24:08.743Z,4.97
2023-05-07T06:29:14.007Z,2.20
2023-05-07T06:34:18.756Z,4.22
2023-05-07T06:39:22.604Z,1.17
2023-05-07T06:44:25.769Z,3.15
2023-05-07T06:50:00.751Z,3.22
2023-05-07T06:55:08.558Z,3.88
2023-05-07T07:00:12.311Z,2.38
2023-05-07T07:05:24.769Z,4.18
2023-05-07T07:10:28.045Z,2.25
2023-05-07T07:15:32.485Z,2.00
2023-05-07T07:20:35.628Z,3.63
2023-05-07T07:25:39.912Z,1.48
2023-05-07T07:30:43.121Z,3.03
2023-05-07T07:35:47.057Z,4.85
2023-05-07T07:40:50.214Z,2.05
2023-05-07T07:45:53.922Z,1.98
2023-05-07T07:50:57.426Z,2.92
2023-05-07T07:56:01.261Z,4.55
2023-05-07T08:01:09.376Z,2.30
2023-05-07T08:06:12.413Z,1.40
2023-05-07T08:11:16.137Z,3.88
2023-05-07T08:16:19.325Z,2.42
2023-05-07T08:21:22.636Z,2.60
2023-05-07T08:26:26.087Z,3.10
2023-05-07T08:31:29.257Z,0.98
2023-05-07T08:36:32.636Z,1.80
2023-05-07T08:41:36.291Z,0.80
2023-05-07T08:46:41.070Z,4.32
2023-05-07T08:51:44.574Z,1.40
2023-05-07T08:56:47.969Z,1.42
2023-05-07T09:01:51.863Z,2.35
2023-05-07T09:06:55.565Z,2.55
2023-05-07T09:12:03.439Z,1.33
2023-05-07T09:17:09.432Z,5.00
2023-05-07T09:22:13.191Z,1.05
2023-05-07T09:27:39.028Z,1.27
2023-05-07T09:32:42.154Z,2.13
2023-05-07T09:37:51.891Z,2.95
2023-05-07T09:42:55.512Z,1.30
2023-05-07T09:48:00.240Z,1.42
2023-05-07T09:53:06.287Z,4.30
2023-05-07T09:58:11.019Z,1.73
2023-05-07T10:03:15.621Z,2.20
2023-05-07T10:08:29.874Z,2.90
2023-05-07T10:13:39.277Z,4.50
2023-05-07T10:18:45.435Z,3.10
2023-05-07T10:24:07.252Z,3.05
2023-05-07T10:29:30.479Z,3.70
2023-05-07T10:34:40.714Z,4.40
2023-05-07T10:39:44.357Z,2.45
2023-05-07T10:44:47.541Z,1.65
2023-05-07T10:50:07.371Z,2.30
2023-05-07T10:55:18.883Z,2.20
2023-05-07T11:00:44.446Z,2.83
2023-05-07T11:06:15.413Z,4.70
2023-05-07T11:11:48.969Z,1.10
2023-05-07T11:17:06.086Z,2.97
2023-05-07T11:22:33.022Z,5.88
2023-05-07T11:27:48.661Z,3.08
2023-05-07T11:32:52.243Z,2.53
2023-05-07T11:38:01.512Z,2.28
2023-05-07T11:43:13.959Z,2.17
2023-05-07T11:48:18.012Z,1.00
2023-05-07T11:53:27.293Z,4.18
2023-05-07T11:58:30.309Z,2.88
2023-05-07T12:03:36.188Z,4.35
2023-05-07T12:08:45.808Z,1.45
2023-05-07T12:13:50.192Z,3.95
2023-05-07T12:18:54.104Z,1.95
2023-05-07T12:23:57.970Z,2.25
2023-05-07T12:29:01.075Z,4.40
2023-05-07T12:34:04.507Z,1.63
2023-05-07T12:39:10.071Z,6.53
2023-05-07T12:44:13.175Z,4.70
2023-05-07T12:49:16.590Z,15.43
2023-05-07T12:54:35.462Z,10.63
2023-05-07T12:59:41.239Z,8.25
2023-05-07T13:04:44.255Z,11.10
2023-05-07T13:09:49.174Z,14.20
2023-05-07T13:14:52.176Z,2.55
2023-05-07T13:19:55.155Z,4.43
2023-05-07T13:24:58.166Z,8.13
2023-05-07T13:30:01.209Z,3.00
2023-05-07T13:35:04.974Z,6.63
2023-05-07T13:40:09.127Z,12.95
2023-05-07T13:45:15.338Z,8.73
2023-05-07T13:55:26.128Z,8.10
2023-05-07T14:00:29.894Z,5.97
2023-05-07T14:05:32.907Z,6.65
2023-05-07T14:10:36.369Z,4.50
2023-05-07T14:15:39.418Z,3.33
2023-05-07T14:20:44.550Z,2.70
2023-05-07T14:25:48.976Z,6.95
2023-05-07T14:30:52.063Z,3.92
2023-05-07T14:35:55.053Z,3.60
2023-05-07T14:40:58.049Z,10.02
2023-05-07T14:46:01.222Z,4.63
2023-05-07T14:51:04.594Z,2.38
2023-05-07T14:56:07.979Z,4.53
2023-05-07T15:01:11.193Z,14.75
2023-05-07T15:06:14.215Z,28.63
2023-05-07T15:11:17.830Z,31.80
2023-05-07T15:16:21.646Z,30.88
2023-05-07T15:21:24.949Z,15.52
2023-05-07T15:26:28.207Z,11.60
2023-05-07T15:31:31.476Z,8.65
2023-05-07T15:36:34.647Z,7.60
2023-05-07T15:41:38.448Z,6.95
2023-05-07T15:46:41.498Z,7.30
2023-05-07T15:51:44.492Z,2.58
2023-05-07T15:56:48.399Z,8.90
2023-05-07T16:01:51.741Z,2.88
2023-05-07T16:06:55.017Z,3.35
2023-05-07T16:11:57.986Z,1.80
2023-05-07T16:17:02.011Z,3.03
2023-05-07T16:22:05.015Z,2.22
2023-05-07T16:27:08.096Z,5.45
2023-05-07T16:32:11.268Z,4.78
2023-05-07T16:37:14.732Z,7.72
2023-05-07T16:42:17.760Z,4.40
2023-05-07T16:47:21.662Z,5.68
2023-05-07T16:52:24.842Z,7.72
2023-05-07T16:57:29.901Z,6.82
2023-05-07T17:02:33.291Z,12.30
2023-05-07T17:07:36.395Z,10.68
2023-05-07T17:12:39.721Z,13.93
2023-05-07T17:17:42.713Z,15.40
2023-05-07T17:22:45.746Z,14.13
2023-05-07T17:27:48.706Z,8.75
2023-05-07T17:32:51.710Z,5.07
2023-05-07T17:37:54.898Z,1.83
2023-05-07T17:42:59.538Z,3.35
2023-05-07T17:48:03.788Z,3.47
2023-05-07T17:53:07.066Z,4.50
2023-05-07T17:58:10.360Z,2.85
2023-05-07T18:03:13.476Z,3.90
2023-05-07T18:08:16.601Z,1.75
2023-05-07T18:13:19.605Z,3.38
2023-05-07T18:18:22.636Z,2.10
2023-05-07T18:23:26.137Z,1.40
2023-05-07T18:28:29.451Z,1.88
2023-05-07T18:33:32.831Z,3.00
2023-05-07T18:38:35.911Z,3.20
2023-05-07T18:43:39.021Z,7.55
2023-05-07T18:48:42.110Z,3.90
2023-05-07T18:53:45.057Z,4.50
2023-05-07T18:58:48.301Z,7.07
2023-05-07T19:03:51.390Z,6.00
2023-05-07T19:08:54.530Z,7.28
2023-05-07T19:13:57.504Z,12.23
2023-05-07T19:19:00.478Z,9.52
2023-05-07T19:24:03.545Z,10.20
2023-05-07T19:29:17.492Z,4.68
2023-05-07T19:34:21.668Z,2.35
2023-05-07T19:39:24.769Z,3.83
2023-05-07T19:44:27.724Z,3.13
2023-05-07T19:49:30.815Z,7.65
2023-05-07T19:54:33.811Z,9.73
2023-05-07T19:59:36.787Z,3.50
2023-05-07T20:04:39.936Z,2.80
2023-05-07T20:09:42.977Z,4.30
2023-05-07T20:14:46.036Z,4.85
2023-05-07T20:19:49.014Z,3.53
2023-05-07T20:24:52.099Z,5.10
2023-05-07T20:29:55.183Z,3.92
2023-05-07T20:34:58.176Z,3.83
2023-05-07T20:40:01.983Z,3.47
2023-05-07T20:45:08.258Z,2.92
2023-05-07T20:50:11.554Z,2.70
2023-05-07T20:55:14.744Z,5.32
2023-05-07T21:00:18.155Z,3.42
2023-05-07T21:05:21.287Z,2.17
2023-05-07T21:10:24.578Z,2.17
2023-05-07T21:15:27.786Z,1.77
2023-05-07T21:20:30.786Z,4.63
2023-05-07T21:25:37.110Z,2.83
2023-05-07T21:30:40.129Z,3.60
2023-05-07T21:35:43.097Z,6.82
2023-05-07T21:40:46.252Z,4.45
2023-05-07T21:45:49.242Z,4.22
2023-05-07T21:51:03.342Z,1.45
2023-05-07T21:56:06.980Z,3.08
2023-05-07T22:01:12.956Z,2.15
2023-05-07T22:06:21.840Z,5.97
2023-05-07T22:11:25.009Z,5.53
2023-05-07T22:16:28.173Z,5.22
2023-05-07T22:21:31.776Z,2.55
2023-05-07T22:26:34.815Z,2.13
2023-05-07T22:31:37.795Z,2.17
2023-05-07T22:36:40.995Z,4.70
2023-05-07T22:41:44.507Z,3.83
2023-05-07T22:46:47.477Z,2.70
2023-05-07T22:51:50.539Z,2.88
2023-05-07T22:56:53.858Z,3.38
2023-05-07T23:01:56.972Z,2.72
2023-05-07T23:07:00.053Z,3.30
2023-05-07T23:12:03.975Z,5.70
2023-05-07T23:17:07.308Z,4.25
2023-05-07T23:22:10.619Z,4.20
2023-05-07T23:27:13.561Z,6.05
2023-05-07T23:32:16.573Z,4.20
2023-05-07T23:37:19.490Z,1.20
2023-05-07T23:42:22.533Z,1.45
2023-05-07T23:47:25.919Z,1.85
2023-05-07T23:52:28.850Z,2.15
2023-05-07T23:57:31.769Z,2.28
